Time;durP1;ratioP1;P1;durP2;ratioP2;P2;SDS_P1;SDS_P2;PMS_P1;PMS_P2;Temp;Humidity;BMP_temperature;BMP_pressure;BME280_temperature;BME280_humidity;BME280_pressure;Samples;Min_cycle;Max_cycle;Signal;HPM_P1;HPM_P2
2021/03/02 00:02:02;;;;;;;9.07;4.65;;;5.40;58.50;;;;;;5052394;28;20507;-70
2021/03/02 00:04:29;;;;;;;6.65;4.47;;;5.40;58.60;;;;;;5051787;28;20050;-71
2021/03/02 00:06:55;;;;;;;10.02;5.45;;;5.40;58.70;;;;;;5052664;28;20028;-71
2021/03/02 00:09:21;;;;;;;12.25;5.30;;;5.40;58.70;;;;;;5052897;28;20040;-70
2021/03/02 00:11:48;;;;;;;6.97;4.57;;;5.40;58.70;;;;;;5052694;28;20106;-70
2021/03/02 00:14:14;;;;;;;7.22;4.88;;;5.40;58.80;;;;;;5051843;28;20495;-70
2021/03/02 00:16:49;;;;;;;8.82;4.90;;;5.40;58.90;;;;;;5052517;28;20091;-70
2021/03/02 00:19:18;;;;;;;10.63;4.70;;;5.30;59.00;;;;;;5052248;28;20045;-70
2021/03/02 00:21:57;;;;;;;10.07;5.32;;;5.30;59.00;;;;;;5044261;28;20503;-70
2021/03/02 00:24:29;;;;;;;8.77;5.03;;;5.30;59.20;;;;;;5068573;28;20138;-70
2021/03/02 00:26:57;;;;;;;9.02;5.45;;;5.20;59.20;;;;;;5052714;28;20024;-71
2021/03/02 00:29:23;;;;;;;9.40;5.13;;;5.20;59.20;;;;;;5052679;28;20036;-71
2021/03/02 00:31:50;;;;;;;11.43;5.45;;;5.20;59.30;;;;;;5052351;28;20024;-71
2021/03/02 00:34:15;;;;;;;8.82;5.45;;;5.20;59.40;;;;;;5051698;28;20505;-71
2021/03/02 00:36:41;;;;;;;8.90;5.45;;;5.10;59.40;;;;;;5036095;28;20107;-70
2021/03/02 00:39:07;;;;;;;10.07;4.90;;;5.10;59.50;;;;;;5053232;28;20096;-70
2021/03/02 00:41:33;;;;;;;9.07;5.40;;;5.10;59.60;;;;;;5052795;28;20123;-70
2021/03/02 00:43:58;;;;;;;12.80;5.63;;;5.10;59.80;;;;;;5051606;28;20021;-70
2021/03/02 00:46:24;;;;;;;9.27;5.43;;;5.10;59.80;;;;;;5052350;28;20052;-70
2021/03/02 00:48:50;;;;;;;9.00;5.03;;;5.10;59.80;;;;;;5050573;28;20394;-70
2021/03/02 00:51:16;;;;;;;8.82;5.05;;;5.10;59.90;;;;;;5047188;28;20013;-71
2021/03/02 00:53:42;;;;;;;10.38;5.55;;;5.10;59.90;;;;;;5039435;28;20021;-70
2021/03/02 00:56:08;;;;;;;10.00;5.35;;;5.00;59.80;;;;;;5051821;28;20419;-71
2021/03/02 00:58:34;;;;;;;12.38;5.57;;;5.00;59.90;;;;;;5052222;28;20056;-70
2021/03/02 01:01:00;;;;;;;13.68;5.53;;;4.90;59.90;;;;;;5051956;28;20059;-71
2021/03/02 01:03:26;;;;;;;10.75;5.22;;;4.90;60.10;;;;;;5051886;28;20039;-70
2021/03/02 01:05:51;;;;;;;11.15;5.68;;;4.80;60.10;;;;;;5051395;28;20021;-70
2021/03/02 01:08:17;;;;;;;9.35;5.35;;;4.80;60.30;;;;;;5052198;28;20028;-71
2021/03/02 01:10:43;;;;;;;13.68;5.55;;;4.80;60.40;;;;;;5051955;28;20020;-70
2021/03/02 01:13:09;;;;;;;11.15;5.72;;;4.70;60.50;;;;;;5052044;28;20112;-70
2021/03/02 01:15:34;;;;;;;13.02;5.68;;;4.70;60.50;;;;;;5051073;28;20027;-70
2021/03/02 01:18:00;;;;;;;11.13;5.75;;;4.70;60.60;;;;;;5052352;28;20041;-70
2021/03/02 01:20:26;;;;;;;9.82;5.28;;;4.70;60.70;;;;;;5050064;28;20033;-70
2021/03/02 01:22:51;;;;;;;15.27;6.25;;;4.70;60.70;;;;;;5051842;28;20060;-70
2021/03/02 01:25:17;;;;;;;9.80;6.05;;;4.60;60.70;;;;;;5050824;28;20029;-71
2021/03/02 01:27:43;;;;;;;10.27;5.97;;;4.60;60.80;;;;;;5054057;28;20380;-71
2021/03/02 01:30:11;;;;;;;11.52;6.00;;;4.60;61.00;;;;;;5055663;28;20025;-70
2021/03/02 01:32:37;;;;;;;12.07;6.13;;;4.60;61.20;;;;;;5054742;28;20024;-70
2021/03/02 01:35:10;;;;;;;10.63;6.07;;;4.60;61.20;;;;;;5046266;28;20388;-71
2021/03/02 01:37:36;;;;;;;8.32;6.05;;;4.60;61.30;;;;;;5055625;28;20373;-71
2021/03/02 01:40:20;;;;;;;11.18;5.78;;;4.60;61.30;;;;;;5055242;28;20033;-70
2021/03/02 01:42:46;;;;;;;11.63;6.40;;;4.50;61.40;;;;;;5055374;28;20105;-70
2021/03/02 01:45:14;;;;;;;12.80;6.18;;;4.50;61.40;;;;;;5054266;28;20107;-70
2021/03/02 01:47:42;;;;;;;14.07;6.78;;;4.50;61.50;;;;;;5055464;28;20017;-70
2021/03/02 01:50:10;;;;;;;10.38;5.40;;;4.50;61.60;;;;;;5054744;28;20029;-70
2021/03/02 01:52:36;;;;;;;10.48;5.90;;;4.50;61.70;;;;;;5039121;28;20039;-70
2021/03/02 01:55:04;;;;;;;12.73;6.20;;;4.50;61.80;;;;;;5051778;28;20032;-70
2021/03/02 01:57:30;;;;;;;15.63;6.88;;;4.50;61.80;;;;;;5055039;28;20390;-70
2021/03/02 01:59:55;;;;;;;15.02;6.88;;;4.50;61.90;;;;;;5055263;28;20037;-71
2021/03/02 02:02:37;;;;;;;14.45;6.45;;;4.50;61.90;;;;;;5054916;28;20067;-70
2021/03/02 02:05:06;;;;;;;15.15;6.97;;;4.60;62.10;;;;;;5053920;28;20029;-70
2021/03/02 02:07:42;;;;;;;15.45;7.45;;;4.50;61.80;;;;;;5054622;28;20082;-70
2021/03/02 02:10:29;;;;;;;11.75;6.55;;;4.60;62.10;;;;;;5055000;28;20031;-70
2021/03/02 02:13:05;;;;;;;16.02;7.57;;;4.60;62.30;;;;;;5054856;28;20115;-71
2021/03/02 02:15:35;;;;;;;12.68;7.20;;;4.60;62.40;;;;;;5054193;28;20025;-70
2021/03/02 02:18:08;;;;;;;15.65;6.72;;;4.60;62.30;;;;;;5072947;28;20496;-71
2021/03/02 02:20:46;;;;;;;12.98;6.75;;;4.60;62.40;;;;;;5047488;28;20178;-71
2021/03/02 02:23:33;;;;;;;14.52;7.22;;;4.60;62.40;;;;;;5051356;28;20025;-71
2021/03/02 02:26:17;;;;;;;13.38;6.57;;;4.60;62.50;;;;;;5053898;28;20033;-71
2021/03/02 02:28:44;;;;;;;13.38;7.38;;;4.60;62.60;;;;;;5051609;28;20029;-70
2021/03/02 02:31:11;;;;;;;16.20;7.32;;;4.60;62.40;;;;;;5053008;28;20025;-70
2021/03/02 02:33:41;;;;;;;12.65;6.38;;;4.60;62.40;;;;;;5054077;28;20028;-70
2021/03/02 02:36:09;;;;;;;13.23;6.95;;;4.50;62.50;;;;;;5050767;28;20052;-70
2021/03/02 02:38:47;;;;;;;15.68;6.85;;;4.50;62.50;;;;;;5047066;28;20020;-71
2021/03/02 02:41:15;;;;;;;11.27;6.38;;;4.40;62.60;;;;;;5034795;28;20024;-71
2021/03/02 02:43:41;;;;;;;15.38;7.13;;;4.30;62.30;;;;;;5062202;28;20120;-70
2021/03/02 02:46:08;;;;;;;14.32;7.68;;;4.20;62.30;;;;;;5047792;28;20539;-70
2021/03/02 02:48:34;;;;;;;14.77;7.35;;;4.10;62.40;;;;;;5054211;28;20029;-70
2021/03/02 02:51:01;;;;;;;15.43;7.35;;;4.00;62.70;;;;;;5051012;28;20035;-71
2021/03/02 02:53:29;;;;;;;13.48;7.50;;;3.90;62.90;;;;;;5034134;28;20064;-71
2021/03/02 02:55:59;;;;;;;20.27;8.30;;;3.90;63.20;;;;;;5051649;28;20456;-70
2021/03/02 02:58:30;;;;;;;14.98;7.65;;;3.90;63.40;;;;;;5054009;28;20485;-70
2021/03/02 03:01:01;;;;;;;15.38;7.88;;;3.90;63.40;;;;;;5054014;28;20554;-70
2021/03/02 03:03:27;;;;;;;14.77;7.47;;;3.90;63.60;;;;;;5053427;28;20036;-70
2021/03/02 03:05:58;;;;;;;13.10;7.25;;;4.00;63.70;;;;;;5052699;28;20028;-70
2021/03/02 03:08:34;;;;;;;15.38;8.02;;;4.00;63.80;;;;;;5053535;28;20029;-70
2021/03/02 03:11:02;;;;;;;15.38;8.02;;;4.00;63.80;;;;;;5053827;28;20456;-70
2021/03/02 03:13:39;;;;;;;17.23;7.70;;;4.00;63.70;;;;;;5053532;28;20034;-70
2021/03/02 03:16:07;;;;;;;15.55;8.40;;;3.90;63.90;;;;;;5053103;28;20436;-71
2021/03/02 03:18:41;;;;;;;20.58;8.82;;;4.00;64.00;;;;;;5053341;28;20033;-70
2021/03/02 03:21:08;;;;;;;16.70;8.10;;;4.00;64.10;;;;;;5049774;28;20032;-70
2021/03/02 03:23:35;;;;;;;15.60;7.88;;;4.00;64.00;;;;;;5053172;28;20507;-70
2021/03/02 03:26:01;;;;;;;19.35;8.48;;;3.90;64.10;;;;;;5052668;28;20020;-70
2021/03/02 03:28:28;;;;;;;15.63;8.40;;;3.90;64.20;;;;;;5053507;28;20017;-70
2021/03/02 03:30:55;;;;;;;20.05;9.02;;;4.00;64.30;;;;;;5053130;28;20115;-71
2021/03/02 03:33:23;;;;;;;18.42;9.13;;;4.00;64.50;;;;;;5053233;28;20161;-70
2021/03/02 03:35:49;;;;;;;16.95;8.82;;;4.00;64.70;;;;;;5050622;28;20048;-70
2021/03/02 03:38:14;;;;;;;18.83;8.32;;;4.10;64.70;;;;;;5041573;28;20029;-70
2021/03/02 03:40:40;;;;;;;17.95;8.65;;;4.10;64.80;;;;;;5048997;28;20174;-70
2021/03/02 03:43:06;;;;;;;15.80;7.80;;;4.10;64.80;;;;;;5053177;28;20376;-71
2021/03/02 03:45:31;;;;;;;15.30;8.15;;;4.10;64.70;;;;;;5052114;28;20033;-70
2021/03/02 03:47:57;;;;;;;15.65;8.27;;;4.20;64.60;;;;;;5053412;28;20017;-70
2021/03/02 03:50:23;;;;;;;18.67;9.50;;;4.10;64.60;;;;;;5048564;28;20025;-71
2021/03/02 03:52:52;;;;;;;17.15;8.57;;;4.10;64.80;;;;;;5052729;28;20044;-70
2021/03/02 03:55:22;;;;;;;20.77;8.95;;;4.10;64.90;;;;;;5051549;28;20085;-70
2021/03/02 03:57:48;;;;;;;17.13;8.90;;;4.10;65.00;;;;;;5052693;28;20040;-70
2021/03/02 04:00:14;;;;;;;18.77;8.50;;;4.10;65.10;;;;;;5052776;28;20082;-70
2021/03/02 04:02:41;;;;;;;16.08;7.82;;;4.10;65.10;;;;;;5052731;28;20027;-70
2021/03/02 04:05:08;;;;;;;16.67;8.82;;;4.10;65.20;;;;;;5052160;28;20089;-71
2021/03/02 04:07:35;;;;;;;18.55;8.93;;;4.10;65.30;;;;;;5052891;28;20426;-71
2021/03/02 04:10:06;;;;;;;17.98;9.15;;;4.10;65.20;;;;;;5052678;28;20473;-71
2021/03/02 04:12:39;;;;;;;18.92;8.75;;;4.10;65.40;;;;;;5052323;28;20610;-71
2021/03/02 04:15:25;;;;;;;21.20;9.23;;;4.10;65.50;;;;;;5052070;28;20040;-71
2021/03/02 04:17:52;;;;;;;21.40;8.70;;;4.10;65.40;;;;;;5052984;28;20032;-71
2021/03/02 04:20:19;;;;;;;21.77;9.00;;;4.10;65.40;;;;;;5052061;28;20036;-70
2021/03/02 04:22:45;;;;;;;18.52;8.88;;;4.10;65.60;;;;;;5041116;28;20020;-70
2021/03/02 04:25:11;;;;;;;20.75;9.18;;;4.10;65.60;;;;;;5052046;28;20035;-70
2021/03/02 04:27:37;;;;;;;19.27;8.70;;;4.10;65.70;;;;;;5052264;28;20024;-70
2021/03/02 04:30:04;;;;;;;15.18;8.60;;;4.10;65.70;;;;;;5052455;28;20388;-71
2021/03/02 04:32:30;;;;;;;14.98;8.23;;;4.00;65.80;;;;;;5050876;28;20638;-70
2021/03/02 04:34:56;;;;;;;17.90;8.77;;;4.00;65.90;;;;;;5041013;28;20116;-71
2021/03/02 04:37:21;;;;;;;17.98;8.57;;;4.00;66.00;;;;;;5043334;28;20126;-71
2021/03/02 04:39:47;;;;;;;17.65;9.10;;;4.00;66.30;;;;;;5044824;28;20097;-70
2021/03/02 04:42:13;;;;;;;17.05;8.50;;;3.90;66.20;;;;;;5052154;28;20079;-71
2021/03/02 04:44:38;;;;;;;16.52;8.18;;;3.90;66.00;;;;;;5051834;28;20541;-70
2021/03/02 04:47:04;;;;;;;15.80;7.65;;;3.80;65.90;;;;;;5052383;28;20621;-70
2021/03/02 04:49:30;;;;;;;16.92;8.57;;;3.70;66.20;;;;;;5052124;28;20025;-70
2021/03/02 04:51:55;;;;;;;17.23;7.25;;;3.70;66.20;;;;;;5051906;28;20112;-70
2021/03/02 04:54:21;;;;;;;13.98;7.68;;;3.60;65.90;;;;;;5051474;28;20025;-71
2021/03/02 04:56:47;;;;;;;16.27;7.53;;;3.60;66.10;;;;;;5052146;28;20060;-71
2021/03/02 04:59:13;;;;;;;13.68;6.95;;;3.50;66.30;;;;;;5052363;28;20028;-71
2021/03/02 05:01:38;;;;;;;14.13;7.82;;;3.60;66.40;;;;;;5054315;28;20028;-71
2021/03/02 05:04:04;;;;;;;15.32;7.40;;;3.60;66.30;;;;;;5054287;28;20048;-71
2021/03/02 05:06:31;;;;;;;15.32;7.78;;;3.60;66.10;;;;;;5056156;28;20066;-71
2021/03/02 05:08:57;;;;;;;14.85;7.40;;;3.50;66.00;;;;;;5056313;28;20119;-70
2021/03/02 05:11:22;;;;;;;17.55;7.55;;;3.50;66.00;;;;;;5055966;28;20070;-70
2021/03/02 05:13:48;;;;;;;13.30;7.38;;;3.50;66.10;;;;;;5058328;23;20045;-69
2021/03/02 05:16:14;;;;;;;15.48;7.47;;;3.50;66.10;;;;;;5048834;28;20029;-68
2021/03/02 05:18:41;;;;;;;15.85;8.20;;;3.50;66.00;;;;;;5049156;28;20043;-68
2021/03/02 05:21:08;;;;;;;19.40;8.80;;;3.50;66.10;;;;;;5032160;28;20033;-69
2021/03/02 05:23:34;;;;;;;16.38;8.65;;;3.50;66.20;;;;;;5049061;28;20044;-69
2021/03/02 05:26:00;;;;;;;19.58;9.07;;;3.50;66.30;;;;;;5048285;28;20028;-67
2021/03/02 05:28:25;;;;;;;14.27;8.18;;;3.50;66.30;;;;;;5032623;28;20639;-68
2021/03/02 05:30:52;;;;;;;30.45;13.25;;;3.50;66.20;;;;;;5032663;28;20029;-69
2021/03/02 05:33:18;;;;;;;58.03;25.95;;;3.50;66.30;;;;;;5032487;28;20024;-68
2021/03/02 05:35:44;;;;;;;58.30;27.27;;;3.50;66.30;;;;;;5027229;28;20034;-69
2021/03/02 05:38:09;;;;;;;35.45;17.48;;;3.40;66.30;;;;;;5018422;28;20030;-67
2021/03/02 05:40:40;;;;;;;38.78;20.55;;;3.40;66.40;;;;;;5030883;28;20479;-69
2021/03/02 05:43:06;;;;;;;20.60;11.10;;;3.40;67.10;;;;;;5037597;28;20477;-67
2021/03/02 05:45:32;;;;;;;22.65;11.07;;;3.40;66.70;;;;;;5033298;28;20025;-69
2021/03/02 05:47:59;;;;;;;25.20;11.57;;;3.40;66.70;;;;;;5029502;28;20083;-67
2021/03/02 05:50:26;;;;;;;20.25;10.27;;;3.50;66.90;;;;;;5032682;28;20451;-68
2021/03/02 05:52:54;;;;;;;19.02;10.18;;;3.50;66.90;;;;;;5032687;28;20120;-68
2021/03/02 05:55:20;;;;;;;19.48;9.02;;;3.50;66.70;;;;;;5031199;28;20561;-69
2021/03/02 05:57:49;;;;;;;22.10;10.40;;;3.40;66.60;;;;;;5031906;28;20206;-69
2021/03/02 06:00:15;;;;;;;20.10;9.60;;;3.40;66.90;;;;;;5031687;28;20035;-68
2021/03/02 06:02:41;;;;;;;19.85;10.10;;;3.30;66.70;;;;;;5031727;28;20037;-69
2021/03/02 06:05:07;;;;;;;22.63;10.02;;;3.30;66.80;;;;;;5031267;28;20026;-68
2021/03/02 06:07:33;;;;;;;20.02;9.57;;;3.20;66.90;;;;;;5031777;28;20452;-67
2021/03/02 06:09:58;;;;;;;22.90;9.70;;;3.10;67.00;;;;;;5039758;28;20076;-67
2021/03/02 06:12:24;;;;;;;20.98;10.25;;;3.10;67.20;;;;;;5032579;28;20033;-67
2021/03/02 06:15:05;;;;;;;17.67;9.35;;;3.10;67.30;;;;;;5030327;28;20124;-67
2021/03/02 06:17:31;;;;;;;20.88;9.93;;;3.10;67.50;;;;;;5016900;28;20113;-69
2021/03/02 06:19:57;;;;;;;19.77;10.10;;;3.00;67.40;;;;;;5020244;28;20529;-69
2021/03/02 06:22:36;;;;;;;20.85;10.18;;;3.00;67.50;;;;;;5031631;28;20423;-69
2021/03/02 06:25:04;;;;;;;19.08;9.90;;;3.00;67.70;;;;;;5030376;28;20029;-67
2021/03/02 06:27:33;;;;;;;24.85;10.75;;;3.00;67.60;;;;;;5025402;28;20422;-68
2021/03/02 06:30:13;;;;;;;22.58;10.68;;;3.00;67.80;;;;;;5029284;28;20029;-69
2021/03/02 06:32:45;;;;;;;24.92;11.30;;;3.00;67.90;;;;;;5031994;28;20389;-68
2021/03/02 06:35:12;;;;;;;21.75;10.57;;;3.00;67.70;;;;;;5031151;28;20057;-69
2021/03/02 06:37:45;;;;;;;21.02;10.18;;;3.00;67.60;;;;;;5031884;28;20087;-69
2021/03/02 06:40:13;;;;;;;19.95;10.07;;;3.00;67.80;;;;;;5032070;28;20357;-68
2021/03/02 06:42:40;;;;;;;21.35;10.20;;;3.20;67.60;;;;;;5032743;28;20022;-68
2021/03/02 06:45:08;;;;;;;18.42;9.43;;;3.40;67.30;;;;;;5031065;28;20386;-68
2021/03/02 06:47:39;;;;;;;22.63;9.93;;;3.70;67.10;;;;;;5022812;28;20021;-68
2021/03/02 06:50:25;;;;;;;23.45;10.40;;;4.00;67.10;;;;;;5031934;28;20510;-68
2021/03/02 06:52:51;;;;;;;21.02;9.13;;;4.40;66.70;;;;;;5031001;28;20099;-68
2021/03/02 06:55:16;;;;;;;19.45;9.63;;;4.70;66.20;;;;;;5030446;28;20049;-68
2021/03/02 06:57:43;;;;;;;17.45;9.45;;;4.90;65.90;;;;;;5031177;28;20464;-67
2021/03/02 07:00:10;;;;;;;19.45;9.77;;;5.10;65.80;;;;;;5031580;28;20030;-69
2021/03/02 07:02:39;;;;;;;14.20;8.55;;;5.40;65.70;;;;;;5030864;28;20025;-68
2021/03/02 07:05:11;;;;;;;17.15;8.77;;;5.60;65.70;;;;;;5031259;28;20025;-70
2021/03/02 07:07:39;;;;;;;20.08;9.65;;;5.80;65.20;;;;;;5031897;28;20424;-70
2021/03/02 07:10:06;;;;;;;14.23;8.45;;;6.10;64.80;;;;;;5015224;28;20055;-70
2021/03/02 07:12:34;;;;;;;16.60;9.00;;;6.20;64.60;;;;;;5031964;28;20400;-69
2021/03/02 07:15:08;;;;;;;16.42;9.30;;;6.20;64.60;;;;;;5030520;28;20044;-69
2021/03/02 07:17:37;;;;;;;18.30;8.93;;;6.20;64.80;;;;;;5028925;28;20030;-68
2021/03/02 07:20:05;;;;;;;18.50;10.70;;;6.30;64.80;;;;;;5031185;28;20385;-68
2021/03/02 07:22:32;;;;;;;21.15;9.57;;;6.50;64.60;;;;;;5031286;28;20025;-67
2021/03/02 07:25:01;;;;;;;16.35;9.10;;;6.70;64.40;;;;;;5029807;28;20525;-67
2021/03/02 07:27:30;;;;;;;16.25;8.95;;;7.00;64.40;;;;;;5025223;28;20022;-68
2021/03/02 07:29:59;;;;;;;17.23;8.73;;;7.30;64.10;;;;;;5045675;28;20413;-69
2021/03/02 07:32:25;;;;;;;19.13;8.90;;;7.40;64.00;;;;;;5011432;28;20386;-67
2021/03/02 07:34:52;;;;;;;16.45;9.13;;;7.60;63.60;;;;;;5027342;28;20112;-67
2021/03/02 07:37:22;;;;;;;14.98;8.77;;;8.00;63.10;;;;;;5030850;28;20032;-68
2021/03/02 07:40:11;;;;;;;15.98;9.10;;;8.30;62.60;;;;;;5030536;28;20036;-69
2021/03/02 07:42:38;;;;;;;18.25;10.35;;;8.70;62.30;;;;;;5029902;28;20033;-66
2021/03/02 07:45:16;;;;;;;14.05;9.88;;;9.10;62.10;;;;;;5029429;28;20040;-67
2021/03/02 07:47:49;;;;;;;16.63;8.52;;;9.50;61.80;;;;;;5028790;28;20045;-67
2021/03/02 07:50:14;;;;;;;14.10;9.60;;;9.80;61.20;;;;;;5031800;28;20033;-67
2021/03/02 07:52:40;;;;;;;15.70;9.73;;;10.30;60.60;;;;;;5032239;28;20037;-66
2021/03/02 07:55:23;;;;;;;15.02;9.27;;;10.80;59.90;;;;;;5029993;28;20032;-69
2021/03/02 07:58:13;;;;;;;15.25;9.27;;;11.30;58.90;;;;;;5050158;28;20033;-68
2021/03/02 08:00:39;;;;;;;21.50;9.38;;;11.70;58.30;;;;;;5038029;28;20043;-69
2021/03/02 08:03:19;;;;;;;21.58;10.57;;;12.10;57.90;;;;;;5055045;28;20378;-71
2021/03/02 08:05:48;;;;;;;19.25;11.07;;;12.30;57.30;;;;;;5021541;28;20400;-67
2021/03/02 08:08:33;;;;;;;16.05;10.10;;;12.50;57.00;;;;;;5026611;28;20484;-67
2021/03/02 08:11:22;;;;;;;13.38;9.45;;;13.00;56.20;;;;;;5029468;28;20026;-67
2021/03/02 08:13:48;;;;;;;16.05;9.88;;;13.30;55.70;;;;;;5026880;28;20025;-68
2021/03/02 08:16:14;;;;;;;16.23;10.02;;;13.70;55.30;;;;;;5045815;28;20036;-67
2021/03/02 08:18:41;;;;;;;14.80;9.05;;;14.10;54.80;;;;;;5018264;28;20036;-68
2021/03/02 08:21:18;;;;;;;15.50;8.30;;;14.30;54.40;;;;;;5011202;28;20036;-68
2021/03/02 08:23:58;;;;;;;18.08;9.90;;;13.90;54.40;;;;;;5025280;28;20060;-68
2021/03/02 08:26:28;;;;;;;19.40;10.77;;;13.60;55.10;;;;;;5032230;28;20024;-69
2021/03/02 08:29:10;;;;;;;23.17;11.07;;;13.60;55.00;;;;;;5029751;28;20062;-68
2021/03/02 08:31:38;;;;;;;19.92;10.23;;;13.50;53.50;;;;;;5029556;28;20445;-70
2021/03/02 08:34:06;;;;;;;14.05;8.13;;;13.30;52.70;;;;;;5029427;28;20044;-69
2021/03/02 08:36:32;;;;;;;16.42;9.18;;;12.90;52.90;;;;;;5013660;28;20022;-68
2021/03/02 08:38:58;;;;;;;15.63;9.02;;;12.60;53.60;;;;;;5020130;28;20025;-68
2021/03/02 08:41:37;;;;;;;16.40;9.23;;;12.50;54.10;;;;;;5022752;28;20098;-70
2021/03/02 08:44:04;;;;;;;25.48;9.98;;;12.30;54.20;;;;;;5028899;28;20025;-68
2021/03/02 08:46:32;;;;;;;15.95;8.57;;;12.40;54.30;;;;;;5046150;28;20017;-68
2021/03/02 08:49:06;;;;;;;18.38;9.80;;;12.30;54.30;;;;;;5025163;28;20053;-68
2021/03/02 08:51:32;;;;;;;17.98;9.98;;;12.40;54.20;;;;;;5021024;28;20550;-68
2021/03/02 08:53:58;;;;;;;16.98;10.38;;;12.40;53.80;;;;;;5010228;28;20058;-68
2021/03/02 08:56:27;;;;;;;17.42;9.15;;;12.40;54.00;;;;;;5009966;28;20045;-67
2021/03/02 08:58:54;;;;;;;19.17;10.05;;;12.30;53.70;;;;;;5010322;28;20018;-69
2021/03/02 09:01:23;;;;;;;19.27;10.10;;;12.30;53.50;;;;;;5009963;28;20029;-68
2021/03/02 09:03:51;;;;;;;18.80;10.63;;;12.30;53.90;;;;;;5023864;28;20493;-69
2021/03/02 09:06:26;;;;;;;20.35;10.30;;;12.30;53.80;;;;;;5029800;28;20036;-69
2021/03/02 09:08:58;;;;;;;17.65;9.68;;;12.30;54.50;;;;;;5029568;28;20026;-68
2021/03/02 09:11:32;;;;;;;18.87;9.43;;;12.40;54.20;;;;;;5016158;28;20489;-69
2021/03/02 09:14:01;;;;;;;16.02;8.95;;;12.50;54.30;;;;;;5032365;28;20030;-66
2021/03/02 09:16:41;;;;;;;15.48;9.82;;;12.70;54.80;;;;;;5049079;28;20017;-69
2021/03/02 09:19:14;;;;;;;20.25;9.38;;;13.00;54.60;;;;;;5048595;28;20441;-68
2021/03/02 09:21:46;;;;;;;15.20;9.50;;;13.30;54.50;;;;;;5031819;28;20026;-68
2021/03/02 09:24:23;;;;;;;17.60;9.77;;;13.60;54.30;;;;;;5031342;28;20053;-68
2021/03/02 09:26:57;;;;;;;16.02;9.18;;;13.90;54.10;;;;;;5031775;28;20029;-68
2021/03/02 09:29:26;;;;;;;17.35;9.40;;;14.10;53.70;;;;;;5031586;28;20025;-68
2021/03/02 09:31:55;;;;;;;16.88;9.77;;;14.40;53.40;;;;;;5031169;28;20034;-68
2021/03/02 09:34:21;;;;;;;18.63;9.70;;;14.50;53.00;;;;;;5022541;28;20389;-68
2021/03/02 09:36:47;;;;;;;15.15;9.20;;;14.60;53.00;;;;;;5028038;28;20037;-68
2021/03/02 09:39:24;;;;;;;18.73;8.73;;;14.60;52.30;;;;;;5018977;28;20030;-68
2021/03/02 09:41:51;;;;;;;17.27;10.00;;;14.60;52.60;;;;;;5026315;28;20084;-68
2021/03/02 09:44:26;;;;;;;17.08;9.80;;;14.70;52.90;;;;;;5030675;28;20024;-68
2021/03/02 09:47:04;;;;;;;20.92;9.75;;;14.80;52.80;;;;;;5047062;28;20392;-69
2021/03/02 09:50:09;;;;;;;19.45;10.18;;;15.00;52.60;;;;;;5034304;28;20083;-68
2021/03/02 09:52:43;;;;;;;17.65;9.32;;;15.00;52.40;;;;;;5012897;28;20124;-68
2021/03/02 09:55:16;;;;;;;14.60;9.30;;;15.00;52.50;;;;;;5014611;28;20129;-67
2021/03/02 09:58:17;;;;;;;18.60;10.02;;;15.10;52.60;;;;;;5015203;28;20121;-68
2021/03/02 10:00:46;;;;;;;17.33;9.18;;;15.10;52.40;;;;;;5014838;28;20081;-68
2021/03/02 10:03:21;;;;;;;17.08;9.07;;;15.20;52.20;;;;;;5025626;28;20033;-69
2021/03/02 10:05:53;;;;;;;17.65;9.07;;;15.20;52.30;;;;;;5023844;28;20108;-69
2021/03/02 10:08:30;;;;;;;14.70;9.68;;;15.20;52.30;;;;;;5014070;28;20397;-70
2021/03/02 10:11:03;;;;;;;18.80;9.85;;;15.10;52.30;;;;;;5048645;28;20021;-69
2021/03/02 10:13:32;;;;;;;20.52;9.73;;;15.10;52.50;;;;;;5041528;28;20041;-70
2021/03/02 10:16:13;;;;;;;19.27;9.50;;;15.10;52.50;;;;;;5030954;28;20037;-70
2021/03/02 10:18:50;;;;;;;16.27;9.70;;;15.10;52.30;;;;;;5023486;28;20028;-68
2021/03/02 10:21:18;;;;;;;19.05;10.77;;;15.00;52.40;;;;;;5032898;28;20079;-69
2021/03/02 10:23:45;;;;;;;17.70;9.60;;;15.00;52.50;;;;;;5021260;28;20034;-68
2021/03/02 10:26:18;;;;;;;17.00;9.90;;;15.00;52.40;;;;;;5012418;28;20465;-68
2021/03/02 10:28:44;;;;;;;15.70;9.73;;;15.00;52.50;;;;;;5015308;28;20022;-68
2021/03/02 10:31:10;;;;;;;19.50;9.50;;;15.00;52.60;;;;;;5014504;28;20022;-68
2021/03/02 10:33:35;;;;;;;15.55;8.77;;;15.10;52.30;;;;;;5027835;28;20045;-69
2021/03/02 10:36:01;;;;;;;17.05;10.07;;;15.20;52.20;;;;;;5031236;28;20025;-68
2021/03/02 10:38:27;;;;;;;21.23;9.80;;;15.20;51.90;;;;;;5023305;28;20029;-68
2021/03/02 10:40:52;;;;;;;16.98;9.05;;;15.20;51.90;;;;;;5033547;28;20076;-68
2021/03/02 10:43:18;;;;;;;17.08;9.20;;;15.10;52.10;;;;;;5031436;28;20075;-68
2021/03/02 10:45:44;;;;;;;17.73;10.18;;;15.00;52.10;;;;;;5032417;28;20014;-69
2021/03/02 10:48:10;;;;;;;14.40;9.45;;;15.00;52.30;;;;;;5032691;28;20056;-68
2021/03/02 10:50:36;;;;;;;18.80;10.43;;;14.90;52.40;;;;;;5033546;28;20033;-69
2021/03/02 10:53:02;;;;;;;20.17;9.50;;;14.90;52.30;;;;;;5018437;28;20413;-68
2021/03/02 10:55:27;;;;;;;22.00;10.40;;;14.80;52.30;;;;;;5016524;28;20552;-68
2021/03/02 10:57:53;;;;;;;17.40;9.80;;;14.80;52.40;;;;;;5032969;28;20036;-68
2021/03/02 11:00:19;;;;;;;17.65;9.52;;;14.80;52.50;;;;;;5030880;28;20469;-68
2021/03/02 11:02:45;;;;;;;17.80;10.30;;;14.70;52.50;;;;;;5013568;28;20123;-68
2021/03/02 11:05:11;;;;;;;17.50;9.70;;;14.70;52.70;;;;;;5028034;28;20148;-68
2021/03/02 11:07:37;;;;;;;16.70;9.70;;;14.70;52.70;;;;;;5033689;28;20025;-68
2021/03/02 11:10:04;;;;;;;16.08;9.88;;;14.60;52.80;;;;;;5033543;28;20056;-66
2021/03/02 11:12:30;;;;;;;16.15;9.30;;;14.70;52.80;;;;;;5028949;28;20042;-66
2021/03/02 11:14:56;;;;;;;15.77;9.48;;;14.70;52.90;;;;;;5030082;28;20044;-68
2021/03/02 11:17:21;;;;;;;18.60;10.07;;;14.60;52.70;;;;;;5024893;28;20026;-68
2021/03/02 11:19:49;;;;;;;20.00;9.80;;;14.70;52.90;;;;;;5013377;28;20084;-69
2021/03/02 11:22:14;;;;;;;16.95;9.57;;;14.70;52.90;;;;;;5031779;28;20453;-68
2021/03/02 11:24:40;;;;;;;17.90;9.77;;;14.70;52.70;;;;;;5037652;22;20069;-70
2021/03/02 11:27:06;;;;;;;18.27;9.68;;;14.80;52.80;;;;;;5027692;28;20044;-70
2021/03/02 11:29:35;;;;;;;16.17;9.95;;;14.90;53.00;;;;;;5030448;28;20067;-70
2021/03/02 11:32:01;;;;;;;21.48;10.52;;;15.10;52.70;;;;;;5030909;28;20112;-70
2021/03/02 11:34:27;;;;;;;19.05;10.52;;;15.20;52.20;;;;;;5029652;28;20056;-70
2021/03/02 11:36:53;;;;;;;24.45;10.90;;;15.40;52.30;;;;;;5024666;28;20029;-70
2021/03/02 11:39:18;;;;;;;27.17;11.73;;;15.50;50.90;;;;;;5030380;28;20032;-70
2021/03/02 11:41:44;;;;;;;24.95;11.45;;;15.40;50.50;;;;;;5030201;28;20027;-70
2021/03/02 11:44:09;;;;;;;20.38;10.55;;;15.30;50.50;;;;;;5030012;28;20049;-70
2021/03/02 11:46:35;;;;;;;20.13;11.07;;;15.30;50.90;;;;;;5027768;28;20105;-70
2021/03/02 11:49:01;;;;;;;17.90;10.30;;;15.30;51.50;;;;;;5010834;28;20033;-70
2021/03/02 11:51:26;;;;;;;16.25;10.07;;;15.40;51.40;;;;;;5015988;28;20025;-70
2021/03/02 11:53:52;;;;;;;17.35;9.70;;;15.60;51.50;;;;;;5022618;28;20121;-70
2021/03/02 11:56:17;;;;;;;17.60;9.25;;;15.80;51.40;;;;;;5022607;28;20449;-70
2021/03/02 11:58:43;;;;;;;15.63;9.88;;;16.00;51.20;;;;;;5030402;28;20114;-70
2021/03/02 12:01:09;;;;;;;18.02;10.55;;;16.10;51.00;;;;;;5029863;28;20033;-70
2021/03/02 12:03:34;;;;;;;16.35;9.63;;;16.30;51.50;;;;;;5030112;28;20033;-70
2021/03/02 12:06:00;;;;;;;17.02;9.82;;;16.50;51.00;;;;;;5014238;28;20485;-70
2021/03/02 12:08:26;;;;;;;19.50;9.18;;;16.60;50.50;;;;;;5022387;28;20029;-70
2021/03/02 12:10:52;;;;;;;15.48;9.43;;;16.70;50.30;;;;;;5030921;28;20037;-70
2021/03/02 12:13:18;;;;;;;15.57;9.93;;;16.80;50.30;;;;;;5018993;28;20038;-70
2021/03/02 12:15:44;;;;;;;15.93;9.20;;;16.80;50.10;;;;;;5011145;28;20083;-70
2021/03/02 12:18:10;;;;;;;16.70;10.32;;;16.90;50.00;;;;;;5018430;28;20033;-70
2021/03/02 12:20:36;;;;;;;18.13;9.57;;;16.90;50.10;;;;;;5030423;28;20029;-70
2021/03/02 12:23:01;;;;;;;18.05;9.75;;;16.90;49.90;;;;;;5023163;28;20080;-70
2021/03/02 12:25:27;;;;;;;18.48;9.68;;;17.00;50.00;;;;;;5022408;28;20121;-70
2021/03/02 12:27:53;;;;;;;16.85;10.20;;;17.20;49.80;;;;;;5029436;28;20048;-70
2021/03/02 12:30:19;;;;;;;17.98;10.05;;;17.30;50.30;;;;;;5030119;28;20063;-70
2021/03/02 12:32:45;;;;;;;17.35;9.88;;;17.60;50.20;;;;;;5026299;28;20057;-70
2021/03/02 12:35:11;;;;;;;18.30;10.48;;;17.80;49.60;;;;;;5010158;28;20057;-70
2021/03/02 12:37:37;;;;;;;17.88;10.32;;;17.90;48.90;;;;;;5021998;28;20243;-70
2021/03/02 12:40:04;;;;;;;16.90;10.23;;;17.80;48.60;;;;;;5023516;28;20025;-71
2021/03/02 12:42:30;;;;;;;15.07;9.43;;;17.80;48.40;;;;;;5014756;28;20037;-71
2021/03/02 12:44:56;;;;;;;14.57;9.00;;;17.80;48.60;;;;;;5009650;28;20374;-71
2021/03/02 12:47:21;;;;;;;17.77;9.63;;;17.80;48.30;;;;;;5026746;28;20025;-70
2021/03/02 12:49:47;;;;;;;19.83;9.93;;;17.90;48.30;;;;;;5024816;28;20026;-70